Time;durP1;ratioP1;P1;durP2;ratioP2;P2;SDS_P1;SDS_P2;PMS_P1;PMS_P2;Temp;Humidity;BMP_temperature;BMP_pressure;BME280_temperature;BME280_humidity;BME280_pressure;Samples;Min_cycle;Max_cycle;Signal;HPM_P1;HPM_P2
2023/10/12 00:01:57;;;;;;;5.90;3.50;;;19.80;75.70;;;;;;5098958;27;20487;-80
2023/10/12 00:04:24;;;;;;;6.38;3.72;;;19.90;74.60;;;;;;5099888;28;20533;-80
2023/10/12 00:06:51;;;;;;;6.28;3.80;;;20.00;74.30;;;;;;5112857;27;20661;-80
2023/10/12 00:09:19;;;;;;;5.90;3.47;;;20.10;74.10;;;;;;5098581;28;20492;-80
2023/10/12 00:11:56;;;;;;;6.18;3.60;;;20.10;73.50;;;;;;5110480;27;20558;-80
2023/10/12 00:14:23;;;;;;;7.22;4.00;;;20.10;73.20;;;;;;5094664;28;20427;-79
2023/10/12 00:16:51;;;;;;;7.22;3.80;;;20.10;72.60;;;;;;5113556;27;20630;-80
2023/10/12 00:19:18;;;;;;;6.22;4.00;;;20.20;72.50;;;;;;5101868;28;20673;-80
2023/10/12 00:21:46;;;;;;;7.40;3.50;;;20.10;72.50;;;;;;5099669;28;20425;-78
2023/10/12 00:24:13;;;;;;;5.45;3.90;;;20.20;72.20;;;;;;5107617;27;20892;-80
2023/10/12 00:26:42;;;;;;;7.93;3.90;;;20.20;72.10;;;;;;5108210;27;20420;-79
2023/10/12 00:29:10;;;;;;;7.78;3.65;;;20.20;71.40;;;;;;5100020;28;20888;-81
2023/10/12 00:31:41;;;;;;;6.28;3.63;;;20.20;71.90;;;;;;5096099;28;20524;-80
2023/10/12 00:34:08;;;;;;;7.07;4.07;;;20.20;71.40;;;;;;5112291;27;20424;-80
2023/10/12 00:36:37;;;;;;;10.45;4.15;;;20.20;71.40;;;;;;5089805;28;20476;-83
2023/10/12 00:39:09;;;;;;;5.82;3.50;;;20.20;71.80;;;;;;5091010;28;20472;-80
2023/10/12 00:41:37;;;;;;;7.38;3.70;;;20.20;72.00;;;;;;5106298;28;20840;-81
2023/10/12 00:44:09;;;;;;;6.32;3.90;;;20.10;72.00;;;;;;5093651;28;20430;-80
2023/10/12 00:46:48;;;;;;;7.95;3.80;;;20.10;71.80;;;;;;5088990;28;20918;-78
2023/10/12 00:49:19;;;;;;;7.88;4.10;;;20.10;71.40;;;;;;5092624;28;20848;-80
2023/10/12 00:51:51;;;;;;;7.63;3.83;;;20.10;71.50;;;;;;5092516;28;20439;-79
2023/10/12 00:54:26;;;;;;;7.03;4.07;;;20.10;71.90;;;;;;5085832;28;20453;-80
2023/10/12 00:56:56;;;;;;;5.47;4.00;;;20.10;71.40;;;;;;5103730;28;20426;-80
2023/10/12 00:59:23;;;;;;;6.72;4.10;;;20.10;71.40;;;;;;5078448;28;20441;-82
2023/10/12 01:01:53;;;;;;;6.50;4.05;;;20.10;72.60;;;;;;5087756;28;20438;-80
2023/10/12 01:04:20;;;;;;;5.70;4.00;;;20.00;71.70;;;;;;5094217;28;20424;-81
2023/10/12 01:06:49;;;;;;;7.57;3.78;;;20.00;71.60;;;;;;5081264;28;20827;-81
2023/10/12 01:09:19;;;;;;;4.80;3.58;;;20.00;71.50;;;;;;5081246;28;20442;-78
2023/10/12 01:11:53;;;;;;;7.20;4.00;;;20.00;71.70;;;;;;5085051;28;20918;-80
2023/10/12 01:14:26;;;;;;;8.73;4.30;;;20.00;71.60;;;;;;5080947;28;20857;-80
2023/10/12 01:16:58;;;;;;;6.20;3.42;;;19.90;71.60;;;;;;5084562;28;20437;-80
2023/10/12 01:19:30;;;;;;;6.90;4.15;;;19.90;72.10;;;;;;5088716;28;20480;-80
2023/10/12 01:22:07;;;;;;;5.57;4.00;;;19.80;74.20;;;;;;5093835;28;20448;-80
2023/10/12 01:24:34;;;;;;;7.75;4.40;;;19.80;73.40;;;;;;5091368;28;20916;-79
2023/10/12 01:27:01;;;;;;;5.50;3.70;;;19.70;74.10;;;;;;5094292;28;20476;-81
2023/10/12 01:29:30;;;;;;;7.70;4.10;;;19.70;76.90;;;;;;5086347;28;20983;-79
2023/10/12 01:32:24;;;;;;;6.53;3.80;;;19.50;77.80;;;;;;5087299;28;20516;-80
2023/10/12 01:34:52;;;;;;;8.20;4.25;;;19.40;78.60;;;;;;5086127;28;20414;-80
2023/10/12 01:37:25;;;;;;;5.68;3.70;;;19.30;76.80;;;;;;5087873;28;20477;-81
2023/10/12 01:39:57;;;;;;;6.70;3.90;;;19.20;76.00;;;;;;5086721;28;20472;-80
2023/10/12 01:42:35;;;;;;;7.40;4.07;;;19.20;75.90;;;;;;5097188;28;20439;-80
2023/10/12 01:45:04;;;;;;;6.03;3.92;;;19.30;74.40;;;;;;5090846;28;20545;-78
2023/10/12 01:47:36;;;;;;;8.23;4.13;;;19.30;73.80;;;;;;5081062;28;20882;-82
2023/10/12 01:50:05;;;;;;;5.90;4.18;;;19.40;73.00;;;;;;5083079;28;20415;-80
2023/10/12 01:52:34;;;;;;;6.47;3.80;;;19.40;72.90;;;;;;5092207;28;20437;-80
2023/10/12 01:55:00;;;;;;;7.95;4.00;;;19.50;71.60;;;;;;5092663;28;20416;-80
2023/10/12 01:57:32;;;;;;;7.60;4.20;;;19.50;71.30;;;;;;5090537;28;20437;-80
2023/10/12 01:59:59;;;;;;;5.25;3.70;;;19.50;70.80;;;;;;5087666;28;21069;-79
2023/10/12 02:02:26;;;;;;;5.35;3.70;;;19.50;71.30;;;;;;5083709;28;20441;-80
2023/10/12 02:04:54;;;;;;;7.30;3.90;;;19.50;70.80;;;;;;5097502;28;20516;-79
2023/10/12 02:07:21;;;;;;;7.93;3.83;;;19.50;70.50;;;;;;5083588;28;20966;-78
2023/10/12 02:09:50;;;;;;;7.18;3.60;;;19.50;70.10;;;;;;5088943;28;20455;-81
2023/10/12 02:12:25;;;;;;;5.85;3.70;;;19.50;70.40;;;;;;5081385;28;20434;-79
2023/10/12 02:14:52;;;;;;;6.45;3.85;;;19.50;69.90;;;;;;5087554;28;20508;-79
2023/10/12 02:17:25;;;;;;;4.28;3.30;;;19.50;69.60;;;;;;5076387;28;20754;-79
2023/10/12 02:19:54;;;;;;;7.43;4.10;;;19.50;69.10;;;;;;5098373;28;20454;-80
2023/10/12 02:22:24;;;;;;;5.88;3.70;;;19.50;69.40;;;;;;5086256;28;20580;-80
2023/10/12 02:25:01;;;;;;;7.05;3.80;;;19.50;69.40;;;;;;5090691;28;20981;-80
2023/10/12 02:27:28;;;;;;;5.63;3.80;;;19.40;70.00;;;;;;5095263;28;20591;-80
2023/10/12 02:29:56;;;;;;;6.30;3.50;;;19.30;71.10;;;;;;5095564;28;20686;-79
2023/10/12 02:32:24;;;;;;;5.60;3.70;;;19.20;69.70;;;;;;5081546;28;20426;-79
2023/10/12 02:34:57;;;;;;;6.97;3.60;;;19.20;70.00;;;;;;5094426;28;20532;-80
2023/10/12 02:37:26;;;;;;;7.18;4.13;;;19.10;70.10;;;;;;5088160;28;20498;-80
2023/10/12 02:39:56;;;;;;;5.88;3.72;;;19.10;70.70;;;;;;5083137;28;20510;-79
2023/10/12 02:42:38;;;;;;;8.50;3.75;;;19.10;70.40;;;;;;5092449;28;20466;-80
2023/10/12 02:45:15;;;;;;;6.00;3.90;;;19.10;71.30;;;;;;5088901;28;20423;-80
2023/10/12 02:47:45;;;;;;;5.25;3.60;;;19.10;72.60;;;;;;5089240;28;20638;-80
2023/10/12 02:52:56;;;;;;;6.35;4.20;;;18.90;76.50;;;;;;5080221;28;20428;-79
2023/10/12 02:55:40;;;;;;;6.78;4.20;;;18.70;77.00;;;;;;5081567;28;20907;-78
2023/10/12 02:58:07;;;;;;;5.03;4.20;;;18.50;77.00;;;;;;5091804;28;20469;-78
2023/10/12 03:00:36;;;;;;;5.05;4.25;;;18.50;77.70;;;;;;5087644;28;20428;-78
2023/10/12 03:03:09;;;;;;;7.90;4.70;;;18.50;78.10;;;;;;5096901;28;20465;-79
2023/10/12 03:05:46;;;;;;;6.13;4.40;;;18.50;78.30;;;;;;5084546;28;20433;-78
2023/10/12 03:08:14;;;;;;;5.45;4.10;;;18.50;78.60;;;;;;5084420;28;20425;-79
2023/10/12 03:11:00;;;;;;;5.65;4.50;;;18.50;79.00;;;;;;5088806;28;20497;-79
2023/10/12 03:13:34;;;;;;;6.72;4.70;;;18.50;79.80;;;;;;5088904;28;20437;-79
2023/10/12 03:16:08;;;;;;;5.70;4.43;;;18.40;80.60;;;;;;5086554;28;20428;-79
2023/10/12 03:18:35;;;;;;;7.32;4.53;;;18.40;81.10;;;;;;5090929;28;20438;-79
2023/10/12 03:21:04;;;;;;;8.98;5.10;;;18.30;81.80;;;;;;5094437;28;20507;-79
2023/10/12 03:23:33;;;;;;;8.13;5.07;;;18.30;83.30;;;;;;5089233;28;20440;-79
2023/10/12 03:26:05;;;;;;;7.22;5.00;;;18.20;82.50;;;;;;5098715;28;20443;-80
2023/10/12 03:28:43;;;;;;;6.33;4.67;;;18.20;82.80;;;;;;5094029;28;20426;-78
2023/10/12 03:31:23;;;;;;;7.57;4.83;;;18.20;83.20;;;;;;5089302;28;20462;-78
2023/10/12 03:33:54;;;;;;;7.38;4.82;;;18.20;84.10;;;;;;5081582;28;20534;-80
2023/10/12 03:36:25;;;;;;;7.10;4.90;;;18.10;84.30;;;;;;5082593;28;20437;-79
2023/10/12 03:41:46;;;;;;;7.75;5.03;;;18.10;85.80;;;;;;5083679;28;20566;-79
2023/10/12 03:44:18;;;;;;;6.22;5.30;;;18.00;86.90;;;;;;5081581;28;20430;-79
2023/10/12 03:46:47;;;;;;;8.07;5.38;;;17.90;88.90;;;;;;5085002;28;20436;-79
2023/10/12 03:49:32;;;;;;;7.22;5.72;;;17.90;89.90;;;;;;5090463;28;20427;-78
2023/10/12 03:52:02;;;;;;;6.70;5.40;;;17.80;90.10;;;;;;5088332;28;20765;-80
2023/10/12 03:54:30;;;;;;;7.95;5.28;;;17.70;90.70;;;;;;5093286;28;20915;-80
2023/10/12 03:57:07;;;;;;;5.85;5.25;;;17.60;91.40;;;;;;5081759;28;20431;-81
2023/10/12 03:59:44;;;;;;;8.20;5.50;;;17.60;91.40;;;;;;5093080;28;20505;-80
2023/10/12 04:02:15;;;;;;;6.57;5.90;;;17.60;91.40;;;;;;5105726;28;20497;-80
2023/10/12 04:04:53;;;;;;;7.43;5.60;;;17.60;91.30;;;;;;5117559;28;20508;-79
2023/10/12 04:07:37;;;;;;;6.53;5.43;;;17.60;91.10;;;;;;5104823;28;20822;-80
2023/10/12 04:10:22;;;;;;;6.85;5.20;;;17.60;91.00;;;;;;5101888;28;20420;-79
2023/10/12 04:12:54;;;;;;;8.60;5.40;;;17.60;91.50;;;;;;5089231;28;20490;-81
2023/10/12 04:15:27;;;;;;;7.68;5.47;;;17.70;90.90;;;;;;5078141;28;20526;-81
2023/10/12 04:17:59;;;;;;;7.65;5.63;;;17.70;91.60;;;;;;5099661;28;20514;-78
2023/10/12 04:20:27;;;;;;;9.85;5.68;;;17.70;91.80;;;;;;5087127;28;20451;-80
2023/10/12 04:25:58;;;;;;;7.90;6.13;;;17.70;91.30;;;;;;5046985;28;20513;-79
2023/10/12 04:28:32;;;;;;;7.45;5.60;;;17.70;91.50;;;;;;5103270;28;20422;-80
2023/10/12 04:34:05;;;;;;;7.45;5.72;;;17.70;91.60;;;;;;5063811;28;20901;-79
2023/10/12 04:36:34;;;;;;;6.80;5.65;;;17.70;92.40;;;;;;5097639;28;20465;-80
2023/10/12 04:39:16;;;;;;;9.02;6.20;;;17.70;92.30;;;;;;5093114;28;20529;-79
2023/10/12 04:41:55;;;;;;;8.10;5.63;;;17.70;92.10;;;;;;5090503;28;20441;-81
2023/10/12 04:44:43;;;;;;;10.07;6.40;;;17.70;92.20;;;;;;5092822;28;20523;-73
2023/10/12 04:47:10;;;;;;;9.25;5.80;;;17.70;92.50;;;;;;5080030;28;20702;-74
2023/10/12 04:49:58;;;;;;;8.48;5.70;;;17.70;93.10;;;;;;5081215;28;20424;-74
2023/10/12 04:52:33;;;;;;;8.60;5.90;;;17.70;93.30;;;;;;5076689;28;20528;-73
2023/10/12 04:55:06;;;;;;;7.72;5.85;;;17.60;93.00;;;;;;5081405;28;20526;-76
2023/10/12 04:57:37;;;;;;;7.20;5.75;;;17.60;93.10;;;;;;5092408;28;20460;-75
2023/10/12 05:00:24;;;;;;;10.93;6.30;;;17.50;93.50;;;;;;5078639;28;20508;-76
2023/10/12 05:02:58;;;;;;;7.53;6.35;;;17.50;94.20;;;;;;5089077;28;20420;-75
2023/10/12 05:08:10;;;;;;;9.05;6.68;;;17.40;96.60;;;;;;5078898;28;20429;-75
2023/10/12 05:10:47;;;;;;;8.20;6.45;;;17.30;97.40;;;;;;5086113;28;20434;-75
2023/10/12 05:13:19;;;;;;;7.38;6.50;;;17.20;98.20;;;;;;5083169;28;20804;-75
2023/10/12 05:15:54;;;;;;;8.88;6.88;;;17.10;98.80;;;;;;5091326;28;20418;-75
2023/10/12 05:18:22;;;;;;;8.17;7.10;;;16.90;99.30;;;;;;5087277;28;20521;-76
2023/10/12 05:20:49;;;;;;;10.98;8.07;;;16.80;99.90;;;;;;5079698;28;20442;-76
2023/10/12 05:23:16;;;;;;;9.25;7.70;;;16.70;99.90;;;;;;5094064;28;20826;-75
2023/10/12 05:25:53;;;;;;;10.65;7.90;;;16.60;99.90;;;;;;5085397;28;20500;-75
2023/10/12 05:28:21;;;;;;;10.47;8.10;;;16.60;99.90;;;;;;5083080;28;20497;-75
2023/10/12 05:30:51;;;;;;;12.30;8.48;;;16.60;99.90;;;;;;5079710;28;20437;-75
2023/10/12 05:33:38;;;;;;;9.00;7.80;;;16.60;99.90;;;;;;5082448;28;20492;-75
2023/10/12 05:36:08;;;;;;;10.32;7.90;;;16.50;99.90;;;;;;5099669;28;20474;-76
2023/10/12 05:38:36;;;;;;;8.50;7.70;;;16.50;99.90;;;;;;5083197;28;20435;-75
2023/10/12 05:41:04;;;;;;;14.23;8.97;;;16.50;99.90;;;;;;5072687;28;20823;-76
2023/10/12 05:43:33;;;;;;;9.80;7.60;;;16.50;99.90;;;;;;5096791;28;20408;-76
2023/10/12 05:46:04;;;;;;;8.57;7.70;;;16.50;99.90;;;;;;5093722;28;20885;-76
2023/10/12 05:48:34;;;;;;;9.18;7.63;;;16.40;99.90;;;;;;5085791;28;20805;-76
2023/10/12 05:51:01;;;;;;;10.90;8.05;;;16.50;99.90;;;;;;5089622;28;20923;-76
2023/10/12 05:53:28;;;;;;;10.43;7.50;;;16.40;99.90;;;;;;5077630;28;20425;-75
2023/10/12 05:55:56;;;;;;;8.63;7.72;;;16.40;99.90;;;;;;5091033;28;20781;-75
2023/10/12 05:58:23;;;;;;;10.13;8.10;;;16.40;99.90;;;;;;5094649;28;21065;-76
2023/10/12 06:00:52;;;;;;;9.18;7.93;;;16.40;99.90;;;;;;5085585;28;20414;-76
2023/10/12 06:03:21;;;;;;;11.90;8.90;;;16.30;99.90;;;;;;5076402;28;20726;-75
2023/10/12 06:05:50;;;;;;;10.88;8.57;;;16.30;99.90;;;;;;5084143;28;20441;-78
2023/10/12 06:08:18;;;;;;;11.13;9.07;;;16.30;99.90;;;;;;5082897;28;20686;-76
2023/10/12 06:10:45;;;;;;;11.73;8.65;;;16.30;99.90;;;;;;5083132;28;20957;-76
2023/10/12 06:13:14;;;;;;;10.57;8.48;;;16.30;99.90;;;;;;5094277;28;20535;-76
2023/10/12 06:15:42;;;;;;;10.30;9.02;;;16.20;99.90;;;;;;5076520;28;20446;-75
2023/10/12 06:18:21;;;;;;;11.48;8.77;;;16.20;99.90;;;;;;5091735;28;20412;-75
2023/10/12 06:20:58;;;;;;;11.75;9.45;;;16.10;99.90;;;;;;5087006;28;20421;-78
2023/10/12 06:23:24;;;;;;;12.57;9.68;;;16.10;99.90;;;;;;5093959;28;20916;-75
2023/10/12 06:25:51;;;;;;;12.00;9.45;;;16.00;99.90;;;;;;5087437;28;20830;-79
2023/10/12 06:28:18;;;;;;;13.20;10.47;;;16.00;99.90;;;;;;5085549;28;20737;-75
2023/10/12 06:30:45;;;;;;;12.38;10.00;;;16.00;99.90;;;;;;5082599;28;20440;-74
2023/10/12 06:33:14;;;;;;;13.82;10.77;;;15.90;99.90;;;;;;5079134;28;20830;-75
2023/10/12 06:35:58;;;;;;;10.77;9.50;;;15.90;99.90;;;;;;5083908;28;20975;-75
2023/10/12 06:38:37;;;;;;;12.23;9.90;;;15.90;99.90;;;;;;5087190;28;20427;-75
2023/10/12 06:43:58;;;;;;;11.57;10.25;;;15.90;99.90;;;;;;5080489;28;20872;-77
2023/10/12 06:46:27;;;;;;;11.52;10.35;;;15.90;99.90;;;;;;5080854;28;20860;-75
2023/10/12 06:49:00;;;;;;;11.10;9.90;;;15.90;99.90;;;;;;5094129;28;20425;-76
2023/10/12 06:51:28;;;;;;;12.27;9.40;;;15.90;99.90;;;;;;5084772;28;20435;-76
2023/10/12 06:54:17;;;;;;;13.00;9.05;;;15.90;99.90;;;;;;5083123;28;20503;-74
2023/10/12 06:56:49;;;;;;;11.70;8.95;;;15.90;99.90;;;;;;5081657;28;20426;-76
2023/10/12 06:59:21;;;;;;;12.15;8.80;;;15.90;99.90;;;;;;5090869;28;20497;-77
2023/10/12 07:02:09;;;;;;;11.23;9.47;;;15.90;99.90;;;;;;5080173;28;20553;-76
2023/10/12 07:04:38;;;;;;;14.10;12.60;;;15.90;99.90;;;;;;5079466;28;20910;-76
2023/10/12 07:07:07;;;;;;;13.00;9.50;;;15.90;99.90;;;;;;5074340;28;20436;-75
2023/10/12 07:09:39;;;;;;;10.35;9.00;;;16.00;99.90;;;;;;5076514;28;20437;-75
2023/10/12 07:12:07;;;;;;;10.55;9.10;;;15.90;99.90;;;;;;5073822;28;20417;-76
2023/10/12 07:14:37;;;;;;;10.25;8.73;;;16.00;99.90;;;;;;5074339;28;20461;-75
2023/10/12 07:17:05;;;;;;;13.88;9.10;;;15.90;99.90;;;;;;5089896;28;20440;-76
2023/10/12 07:19:34;;;;;;;11.33;9.40;;;15.90;99.90;;;;;;5082855;28;20575;-75
2023/10/12 07:22:07;;;;;;;12.20;9.23;;;16.00;99.90;;;;;;5083421;28;20835;-76
2023/10/12 07:24:38;;;;;;;12.48;9.15;;;16.00;99.90;;;;;;5083937;28;20642;-77
2023/10/12 07:27:11;;;;;;;12.50;9.80;;;16.00;99.90;;;;;;5090171;28;20484;-75
2023/10/12 07:29:39;;;;;;;12.38;9.15;;;16.00;99.90;;;;;;5089743;28;20879;-76
2023/10/12 07:32:18;;;;;;;10.35;9.02;;;16.00;99.90;;;;;;5079294;28;20880;-77
2023/10/12 07:34:52;;;;;;;11.85;8.73;;;16.00;99.90;;;;;;5070283;28;20428;-76
2023/10/12 07:37:19;;;;;;;10.32;9.02;;;16.00;99.90;;;;;;5083629;28;20431;-75
2023/10/12 07:39:50;;;;;;;10.82;9.50;;;16.00;99.90;;;;;;5079815;28;20434;-75
2023/10/12 07:42:25;;;;;;;10.65;9.43;;;16.00;99.90;;;;;;5080137;28;20818;-78
2023/10/12 07:44:54;;;;;;;10.88;9.20;;;16.00;99.90;;;;;;5078433;28;20469;-75
2023/10/12 07:47:31;;;;;;;10.63;8.43;;;15.90;99.90;;;;;;5074840;28;20426;-74
2023/10/12 07:50:07;;;;;;;11.30;9.13;;;15.90;99.90;;;;;;5087545;28;20448;-75
2023/10/12 07:52:46;;;;;;;14.10;10.02;;;15.90;99.90;;;;;;5086079;28;20465;-74
2023/10/12 07:55:16;;;;;;;12.40;10.13;;;15.90;99.90;;;;;;5085373;28;20435;-76
2023/10/12 07:57:42;;;;;;;12.47;10.10;;;16.00;99.90;;;;;;5093190;28;20460;-75
2023/10/12 08:03:17;;;;;;;10.35;9.40;;;16.00;99.90;;;;;;5092804;28;20445;-75
2023/10/12 08:05:43;;;;;;;12.65;9.65;;;16.00;99.90;;;;;;5082811;28;20441;-75
2023/10/12 08:08:32;;;;;;;10.40;8.82;;;16.00;99.90;;;;;;5080667;28;20511;-75
2023/10/12 08:11:08;;;;;;;10.52;8.95;;;16.00;99.90;;;;;;5090700;22;20442;-69
2023/10/12 08:13:39;;;;;;;12.48;9.50;;;16.00;99.90;;;;;;5066122;28;20427;-69
2023/10/12 08:16:13;;;;;;;12.25;9.10;;;16.00;99.90;;;;;;5069822;28;20474;-66
2023/10/12 08:19:23;;;;;;;12.70;9.60;;;16.00;99.90;;;;;;5070525;28;20469;-68
2023/10/12 08:21:42;;;;;;;12.20;9.05;;;16.00;99.90;;;;;;5032547;28;20442;-69
2023/10/12 08:24:22;;;;;;;12.07;9.40;;;16.00;99.90;;;;;;5049303;28;20548;-67
2023/10/12 08:26:57;;;;;;;11.15;9.63;;;16.00;99.90;;;;;;5065051;28;20424;-67
2023/10/12 08:32:12;;;;;;;9.77;8.77;;;16.10;99.90;;;;;;5042991;28;20429;-68
2023/10/12 08:34:42;;;;;;;10.60;9.50;;;16.10;99.90;;;;;;5041154;28;20434;-69
2023/10/12 08:40:08;;;;;;;11.20;9.30;;;16.20;99.90;;;;;;5043336;28;20419;-67
2023/10/12 08:42:41;;;;;;;10.48;9.27;;;16.20;99.90;;;;;;5051119;28;20405;-68
2023/10/12 08:45:09;;;;;;;11.38;8.95;;;16.20;99.90;;;;;;5054305;28;20489;-68
2023/10/12 08:47:44;;;;;;;11.83;9.50;;;16.30;99.90;;;;;;5054815;28;20941;-68
2023/10/12 08:50:47;;;;;;;11.02;9.55;;;16.30;99.90;;;;;;5050308;28;20923;-68
2023/10/12 08:53:03;;;;;;;10.95;8.90;;;16.30;99.90;;;;;;5048438;28;20466;-69
2023/10/12 08:55:32;;;;;;;10.00;9.10;;;16.30;99.90;;;;;;5045986;28;20658;-68
2023/10/12 08:58:12;;;;;;;10.27;8.85;;;16.40;99.90;;;;;;5044369;28;20768;-68
2023/10/12 09:00:43;;;;;;;9.40;8.50;;;16.40;99.90;;;;;;5043525;28;20436;-68
2023/10/12 09:03:24;;;;;;;12.57;8.90;;;16.50;99.90;;;;;;5039003;28;20482;-67
2023/10/12 09:05:52;;;;;;;9.82;8.82;;;16.50;99.90;;;;;;5044317;28;20429;-71
2023/10/12 09:08:39;;;;;;;9.70;8.70;;;16.50;99.90;;;;;;5046509;28;20796;-71
2023/10/12 09:11:14;;;;;;;10.13;9.07;;;16.60;99.90;;;;;;5046256;28;20429;-69
2023/10/12 09:13:45;;;;;;;10.17;8.50;;;16.60;99.90;;;;;;5043100;28;20465;-70
2023/10/12 09:16:14;;;;;;;10.55;9.45;;;16.60;99.90;;;;;;5042020;28;20457;-68
2023/10/12 09:18:46;;;;;;;9.77;8.32;;;16.70;99.90;;;;;;5040635;28;20436;-68
2023/10/12 09:21:23;;;;;;;11.27;8.90;;;16.70;99.90;;;;;;5045674;28;20976;-69
2023/10/12 09:23:52;;;;;;;9.00;8.20;;;16.80;99.90;;;;;;5041502;28;20457;-68
2023/10/12 09:26:32;;;;;;;12.75;8.60;;;16.80;99.90;;;;;;5040639;28;20487;-68
2023/10/12 09:32:03;;;;;;;8.55;7.65;;;16.90;99.90;;;;;;5030147;28;20444;-69
2023/10/12 09:34:44;;;;;;;11.23;8.20;;;17.00;99.90;;;;;;5041242;28;20494;-68
2023/10/12 09:37:17;;;;;;;9.55;8.18;;;17.10;99.90;;;;;;5046106;28;20439;-70
2023/10/12 09:39:46;;;;;;;9.93;8.50;;;17.10;99.90;;;;;;5045642;28;20926;-69
2023/10/12 09:42:22;;;;;;;8.88;7.72;;;17.20;99.90;;;;;;5047246;28;20516;-71
2023/10/12 09:44:52;;;;;;;8.88;7.90;;;17.30;99.90;;;;;;5046508;28;20814;-70
2023/10/12 09:47:25;;;;;;;9.90;7.57;;;17.40;99.90;;;;;;5053931;28;20425;-72
2023/10/12 09:49:55;;;;;;;9.52;7.97;;;17.40;99.90;;;;;;5043262;28;20458;-69
2023/10/12 09:52:30;;;;;;;12.60;7.90;;;17.50;99.90;;;;;;5050285;28;20425;-69
2023/10/12 09:55:07;;;;;;;8.75;6.85;;;17.60;99.90;;;;;;5049708;28;20495;-69
2023/10/12 09:57:36;;;;;;;12.45;7.80;;;17.70;99.90;;;;;;5057893;28;20517;-70
2023/10/12 10:00:18;;;;;;;9.67;7.50;;;17.80;99.90;;;;;;5052278;28;20550;-70
2023/10/12 10:02:49;;;;;;;9.10;7.47;;;18.00;99.90;;;;;;5045883;28;20451;-70
2023/10/12 10:05:27;;;;;;;8.50;7.60;;;18.10;99.90;;;;;;5049914;28;20425;-71
2023/10/12 10:07:58;;;;;;;9.63;7.75;;;18.10;99.90;;;;;;5048062;28;20483;-71
2023/10/12 10:10:30;;;;;;;9.38;8.20;;;18.20;99.90;;;;;;5042608;28;20432;-70
2023/10/12 10:12:59;;;;;;;8.60;7.80;;;18.30;99.90;;;;;;5046549;28;20433;-71
2023/10/12 10:15:36;;;;;;;8.25;7.45;;;18.30;99.90;;;;;;5039500;28;20880;-71
2023/10/12 10:18:04;;;;;;;9.70;8.70;;;18.50;99.90;;;;;;5046881;28;20454;-71
2023/10/12 10:20:46;;;;;;;9.43;7.25;;;18.70;99.90;;;;;;5043133;28;20438;-71
2023/10/12 10:23:15;;;;;;;8.65;6.90;;;18.70;99.90;;;;;;5046474;28;20453;-70
2023/10/12 10:25:56;;;;;;;7.97;7.13;;;18.80;99.90;;;;;;5047496;28;20487;-71
2023/10/12 10:28:26;;;;;;;8.60;7.63;;;18.80;99.90;;;;;;5042128;28;20633;-71
2023/10/12 10:30:59;;;;;;;9.70;6.63;;;18.90;99.90;;;;;;5050102;28;20461;-70
2023/10/12 10:33:28;;;;;;;9.02;7.25;;;18.90;99.90;;;;;;5062835;28;20422;-70
2023/10/12 10:36:01;;;;;;;8.40;7.10;;;19.00;99.90;;;;;;5067640;28;20424;-69
2023/10/12 10:38:32;;;;;;;8.40;6.85;;;19.10;98.20;;;;;;5051666;28;20834;-72
2023/10/12 10:41:07;;;;;;;7.63;6.80;;;19.20;98.10;;;;;;5046282;28;20454;-67
2023/10/12 10:43:37;;;;;;;9.52;7.25;;;19.50;97.50;;;;;;5048762;28;20963;-67
2023/10/12 10:46:09;;;;;;;7.93;7.13;;;19.50;96.20;;;;;;5043180;28;20447;-65
2023/10/12 10:48:38;;;;;;;9.35;7.40;;;19.50;96.80;;;;;;5038872;28;20799;-66
2023/10/12 10:51:11;;;;;;;7.25;6.45;;;19.70;97.20;;;;;;5045555;28;20427;-68
2023/10/12 10:53:38;;;;;;;8.27;6.35;;;19.70;95.00;;;;;;5052697;28;20791;-66
2023/10/12 10:56:12;;;;;;;7.97;6.80;;;19.60;95.40;;;;;;5043169;28;20433;-69
2023/10/12 10:58:40;;;;;;;8.20;7.00;;;19.40;95.40;;;;;;5046698;28;20428;-67
2023/10/12 11:01:12;;;;;;;8.97;7.20;;;19.30;95.90;;;;;;5046681;28;22019;-68
2023/10/12 11:03:39;;;;;;;8.65;6.45;;;19.30;95.60;;;;;;5046622;28;20433;-68
2023/10/12 11:06:09;;;;;;;8.98;6.63;;;19.30;95.40;;;;;;5044429;28;20468;-68
2023/10/12 11:08:36;;;;;;;7.97;6.82;;;19.40;95.30;;;;;;5044989;28;20805;-66
2023/10/12 11:13:46;;;;;;;7.00;6.30;;;19.50;94.20;;;;;;5043383;28;20433;-68
2023/10/12 11:19:00;;;;;;;7.60;6.40;;;19.40;94.30;;;;;;5046488;28;20512;-68
2023/10/12 11:21:27;;;;;;;7.07;6.20;;;19.40;93.90;;;;;;5040120;28;20512;-67
2023/10/12 11:24:04;;;;;;;7.70;5.67;;;19.40;93.70;;;;;;5063277;28;20425;-67
2023/10/12 11:26:39;;;;;;;7.88;6.30;;;19.40;93.50;;;;;;5055201;28;20961;-66
2023/10/12 11:29:10;;;;;;;8.48;5.60;;;19.40;93.80;;;;;;5047441;28;20439;-67
2023/10/12 11:31:39;;;;;;;8.43;5.80;;;19.50;93.40;;;;;;5045821;28;20715;-69
2023/10/12 11:34:11;;;;;;;7.60;6.35;;;19.60;93.40;;;;;;5054943;28;20427;-66
2023/10/12 11:36:39;;;;;;;7.40;5.53;;;19.60;93.10;;;;;;5046448;28;20444;-67
2023/10/12 11:39:16;;;;;;;9.32;6.00;;;19.70;93.00;;;;;;5043676;28;20432;-66
2023/10/12 11:41:43;;;;;;;8.77;5.75;;;19.70;93.00;;;;;;5045560;28;20437;-69
2023/10/12 11:44:12;;;;;;;8.25;5.82;;;19.70;93.30;;;;;;5047239;28;20440;-70
2023/10/12 11:46:44;;;;;;;6.80;5.68;;;19.80;92.70;;;;;;5036854;28;20463;-68
2023/10/12 11:49:11;;;;;;;7.80;5.90;;;19.80;92.30;;;;;;5042401;28;20463;-68
2023/10/12 11:51:50;;;;;;;6.60;5.13;;;19.80;92.60;;;;;;5041812;28;20919;-67
2023/10/12 11:54:20;;;;;;;8.07;5.70;;;19.80;93.00;;;;;;5042804;28;20433;-68
2023/10/12 11:56:49;;;;;;;7.32;5.80;;;19.90;92.80;;;;;;5045988;28;20440;-69
2023/10/12 11:59:22;;;;;;;7.28;5.43;;;19.90;92.30;;;;;;5039617;28;20482;-70
2023/10/12 12:01:55;;;;;;;8.57;5.60;;;19.90;92.30;;;;;;5036787;28;20525;-70
2023/10/12 12:04:30;;;;;;;7.43;5.70;;;20.00;92.40;;;;;;5043975;28;20429;-70
2023/10/12 12:06:57;;;;;;;9.38;5.65;;;20.30;91.40;;;;;;5049637;28;20501;-67
2023/10/12 12:09:27;;;;;;;7.15;5.10;;;20.40;91.30;;;;;;5044603;28;20452;-67
2023/10/12 12:11:54;;;;;;;6.63;5.18;;;20.50;90.90;;;;;;5044846;28;20433;-69
2023/10/12 12:14:21;;;;;;;6.40;4.97;;;20.60;90.10;;;;;;5049570;28;20433;-70
2023/10/12 12:16:48;;;;;;;9.60;5.20;;;20.60;90.10;;;;;;5047634;28;20440;-68
2023/10/12 12:19:22;;;;;;;6.65;4.97;;;20.60;90.00;;;;;;5042660;28;20428;-69
2023/10/12 12:21:49;;;;;;;7.75;4.80;;;20.50;90.10;;;;;;5038518;28;20413;-67
2023/10/12 12:24:22;;;;;;;8.95;5.28;;;20.50;90.30;;;;;;5041306;28;20424;-68
2023/10/12 12:26:49;;;;;;;6.95;5.00;;;20.50;90.30;;;;;;5042157;28;20504;-69
2023/10/12 12:29:21;;;;;;;7.50;5.10;;;20.40;90.10;;;;;;5044056;28;20498;-68
2023/10/12 12:31:48;;;;;;;5.97;4.53;;;20.30;90.20;;;;;;5045069;28;20433;-70
2023/10/12 12:34:34;;;;;;;6.30;4.55;;;20.20;90.00;;;;;;5042391;28;20429;-69
2023/10/12 12:37:04;;;;;;;5.35;4.32;;;20.20;90.00;;;;;;5048120;28;20437;-69
2023/10/12 12:39:32;;;;;;;6.40;4.60;;;20.10;90.30;;;;;;5049165;28;20516;-69
2023/10/12 12:41:58;;;;;;;7.25;4.70;;;20.10;90.60;;;;;;5047669;28;20544;-67
2023/10/12 12:44:25;;;;;;;8.70;5.30;;;20.10;90.60;;;;;;5048664;28;20970;-69
2023/10/12 12:46:52;;;;;;;7.33;5.03;;;20.10;90.80;;;;;;5057415;28;20417;-67
2023/10/12 12:49:20;;;;;;;7.25;4.97;;;20.10;91.00;;;;;;5064534;28;20452;-66
2023/10/12 12:51:49;;;;;;;6.20;4.80;;;20.00;90.90;;;;;;5072643;28;20723;-69
2023/10/12 12:54:16;;;;;;;7.35;5.18;;;20.00;90.90;;;;;;5067638;28;20425;-64
2023/10/12 12:56:43;;;;;;;8.95;4.43;;;19.90;90.60;;;;;;5060993;28;20433;-68
2023/10/12 12:59:10;;;;;;;5.83;5.00;;;19.80;90.90;;;;;;5052084;28;20421;-70
2023/10/12 13:01:39;;;;;;;6.05;4.78;;;19.80;91.00;;;;;;5050213;28;20496;-71
2023/10/12 13:04:05;;;;;;;7.55;4.90;;;19.70;91.40;;;;;;5050888;28;20547;-70
2023/10/12 13:06:34;;;;;;;7.38;4.75;;;19.70;91.40;;;;;;5045437;28;20437;-69
2023/10/12 13:09:01;;;;;;;6.13;4.50;;;19.60;91.90;;;;;;5048604;28;20928;-69
2023/10/12 13:11:28;;;;;;;8.52;5.95;;;19.60;92.00;;;;;;5049387;28;20429;-70
2023/10/12 13:13:55;;;;;;;5.63;4.70;;;19.60;93.90;;;;;;5051594;28;20425;-70
2023/10/12 13:16:21;;;;;;;7.47;4.93;;;19.50;93.70;;;;;;5049842;28;20416;-66
2023/10/12 13:18:48;;;;;;;8.07;5.32;;;19.40;95.20;;;;;;5048467;28;20672;-69
2023/10/12 13:21:15;;;;;;;9.13;5.40;;;19.30;96.80;;;;;;5043677;28;20425;-68
2023/10/12 13:23:44;;;;;;;8.17;5.77;;;19.20;99.00;;;;;;5048931;28;20917;-69
2023/10/12 13:26:12;;;;;;;8.07;5.93;;;18.90;99.90;;;;;;5049564;28;20448;-67
2023/10/12 13:28:41;;;;;;;7.25;6.18;;;18.70;99.90;;;;;;5046023;28;20429;-70
2023/10/12 13:31:10;;;;;;;9.98;6.80;;;18.50;99.90;;;;;;5045743;28;20436;-69
2023/10/12 13:33:37;;;;;;;8.77;6.60;;;18.40;99.90;;;;;;5048142;28;20425;-69
2023/10/12 13:36:05;;;;;;;7.38;6.43;;;18.20;99.90;;;;;;5046946;28;20507;-69
2023/10/12 13:38:34;;;;;;;7.75;6.50;;;18.00;99.90;;;;;;5046630;28;20448;-70
2023/10/12 13:41:02;;;;;;;10.40;6.60;;;17.80;99.90;;;;;;5044036;28;20545;-68